Atomic City, Idaho
Current Conditions -  °F | °C
As of 2:53 PM on Thursday 23 Oct 2014 (Local Time) from KIDA Reporting Station
Clear Clear  
Wind Chill: 18°   Ceiling: Unl
Heat Index: 18°   Visibility: 10mi
Dew Point:   Wind: 14mph
Humidity: 30%   Direction: 210°SSW
Pressure: 30.08"   Gusts: NA
Location:  43.44°N, 112.81°W
Report Text: KIDA 232053Z 21012KT 10SM CLR 18/00 A3008 RMK AO2 SLP170 T01780000 58017
Loading
Personal Weather Stations






























Interactive Weather Map
Tropical Storm Tracking
New forecast layout! Learn more

10-Day Weather Forecast

Advertisements
Track Severe Weather on mobile